Atwater, California
Current Conditions -  °F | °C
As of 4:55 AM on Tuesday 21 Oct 2014 (Local Time) from KMER Reporting Station
Clear Clear  
Wind Chill: 54°   Ceiling: Unl
Heat Index: 54°   Visibility: 10mi
Dew Point: 54°   Wind: 8mph
Humidity: 100%   Direction: 10°N
Pressure: 30.04"   Gusts: NA
Location:  37.35°N, 120.6°W
Report Text: KMER 211155Z AUTO 01007KT 10SM CLR 12/12 A3004 RMK AO1
Loading
Personal Weather Stations






























Interactive Weather Map
Tropical Storm Tracking
New forecast layout! Learn more

10-Day Weather Forecast

Advertisements
Track Severe Weather on mobile